Friday, November 15, 2019, 10:56 AM GMT
Back to Local

CWIT, Saint Clothilde Automated Reporting Station

Location: , , Canada Lat: 45.167
Local Time: 10:56 AM GMT (10:56 GMT) Lon: -73.683
Time Zone: GMT Elev: 170 ft

Show me the last for .
Show Coded

Time T Td Feel RH Dir Speed Gust Alt SLP Vis Weather Sky Remarks
2019-11-15 10:00 32 29 28 90 230° 3 - - 30.00 0 None
2019-11-15 09:00 31 27 - 85 310° 2 - - 30.01 0 1-hr Precip Total: 0.01"
2019-11-15 08:00 29 27 - 89 320° 2 - - 30.03 0 None
2019-11-15 07:00 29 26 - 88 - Calm - - 30.06 0 None
2019-11-15 06:00 30 24 - 80 - Calm - - 30.07 0 None
2019-11-15 05:00 30 25 - 80 150° 2 - - 30.09 0 None
2019-11-15 04:00 31 24 - 74 170° 2 - - 30.11 0 None
2019-11-15 03:00 29 24 - 78 160° 1 - - 30.13 0 None
2019-11-15 02:00 29 23 - 79 160° 2 - - 30.14 0 None
2019-11-15 01:00 29 23 25 79 160° 3 - - 30.15 0 None
2019-11-15 00:00 28 22 23 78 160° 5 - - 30.16 0 None
2019-11-14 23:00 27 23 21 82 160° 6 - - 30.17 0 None
2019-11-14 22:00 27 22 19 82 160° 7 - - 30.18 0 None
2019-11-14 21:00 26 21 18 81 160° 8 - - 30.18 0 None
2019-11-14 20:00 26 21 18 79 160° 8 - - 30.19 0 1-hr Precip Total: 0.01"
2019-11-14 19:00 26 22 18 84 160° 8 - - 30.21 0 None
2019-11-14 18:00 26 22 16 85 160° 9 - - 30.22 0 None
2019-11-14 17:00 26 17 17 66 160° 9 - - 30.24 0 None
2019-11-14 16:00 24 17 15 74 160° 8 - - 30.25 0 None
2019-11-14 13:00 22 10 8 60 160° 10 17 - 30.27 0 None
2019-11-14 12:00 20 12 10 70 140° 9 - - 30.28 0 None
2019-11-14 11:00 19 15 10 83 150° 7 - - 30.30 0 None

Support USWX by starting your Amazon purchase here.